Flight Track Log - Related Links

Times and Time Zones

All times are in EDT time to prevent confusion due to time zone crossing. See the UAL664 flight status page for this flight to view local times or setup timezone preferences in your user account.


Time Position Orientation Groundspeed Altitude Reporting Facility
EDT Latitude Longitude Course Direction KTS MPH feet Rate Location/Type
Thu 07:35:49 PM 40.6500 -74.1833 217° Southwest 186 214 1,500  Level New York TRACON
Thu 07:36:49 PM 40.6167 -74.2333 229° Southwest 231 266 2,800 1,900 Climbing New York TRACON
Thu 07:37:49 PM 40.5667 -74.3000 225° Southwest 264 304 5,300 2,650 Climbing New York TRACON
Thu 07:38:00 PM 40.5452 -74.5882 244° Southwest  Level FlightAware Approximate
Thu 07:38:49 PM 40.5333 -74.3833 242° Southwest 277 319 8,100  Level New York TRACON
Thu 07:39:00 PM 40.4936 -74.7361 246° West  Level FlightAware Approximate
Thu 07:39:49 PM 40.5333 -74.4833 270° West 277 319 10,700  Level New York TRACON
Thu 07:40:00 PM 40.4416 -74.8834 237° Southwest  Level FlightAware Approximate
Thu 07:41:00 PM 40.3727 -75.0106 217° Southwest  Level FlightAware Approximate
Thu 07:42:12 PM 40.5161 -74.7267 265° West 311 358 14,700  Level New York Center
Thu 07:43:11 PM 40.4731 -74.8306 241° Southwest 346 398 16,300 1,765 Climbing New York Center
Thu 07:44:11 PM 40.4272 -74.9506 243° Southwest 367 422 18,200 1,800 Climbing New York Center
Thu 07:45:11 PM 40.3542 -75.0689 231° Southwest 372 428 19,900 1,587 Climbing New York Center
Thu 07:46:12 PM 40.2794 -75.1731 227° Southwest 389 448 21,400 1,462 Climbing New York Center
Thu 07:47:10 PM 40.2025 -75.2794 227° Southwest 401 461 22,800 1,361 Climbing New York Center
Thu 07:48:11 PM 40.1253 -75.3911 228° Southwest 406 467 24,100 1,190 Climbing New York Center
Thu 07:49:11 PM 40.0503 -75.4919 226° Southwest 418 481 25,200 1,091 Climbing New York Center
Thu 07:50:12 PM 39.9706 -75.6058 228° Southwest 425 489 26,300 1,091 Climbing New York Center
Thu 07:51:12 PM 39.8886 -75.7244 228° Southwest 436 502 27,400 950 Climbing New York Center
Thu 07:52:12 PM 39.8103 -75.8489 231° Southwest 442 509 28,200 893 Climbing New York Center
Thu 07:53:13 PM 39.7275 -75.9778 230° Southwest 453 521 29,200 966 Climbing New York Center
Thu 07:54:10 PM 39.6467 -76.1067 231° Southwest 460 529 30,100 824 Climbing New York Center
Thu 07:55:24 PM 39.5472 -76.2644 231° Southwest 445 512 31,000 800 Climbing Washington Center
Thu 07:56:25 PM 39.4650 -76.4008 232° Southwest 462 532 31,900 496 Climbing Washington Center
Thu 07:57:25 PM 39.3908 -76.5664 240° Southwest 483 556 32,000 51 Climbing Washington Center
Thu 07:58:23 PM 39.3436 -76.7267 249° West 477 549 32,000  Level Washington Center
Thu 07:59:24 PM 39.3003 -76.8869 251° West 482 555 32,000  Level Washington Center
Thu 08:00:25 PM 39.2506 -77.0442 248° West 477 549 32,000  Level Washington Center
Thu 08:01:23 PM 39.1800 -77.1847 237° Southwest 477 549 32,000  Level Washington Center
Thu 08:02:23 PM 39.0722 -77.2894 217° Southwest 477 549 32,000  Level Washington Center
Thu 08:03:24 PM 38.9606 -77.3775 212° Southwest 472 543 32,000  Level Washington Center
Thu 08:04:23 PM 38.8467 -77.4708 213° Southwest 484 557 32,000 353 Level Washington Center
Thu 08:05:23 PM 38.7283 -77.5636 211° Southwest 492 566 32,700 950 Climbing Washington Center
Thu 08:06:23 PM 38.6206 -77.6589 215° Southwest 492 566 33,900 1,091 Climbing Washington Center
Thu 08:07:24 PM 38.5103 -77.7514 213° Southwest 487 560 34,900 787 Climbing Washington Center
Thu 08:08:25 PM 38.4131 -77.8308 213° Southwest 482 555 35,500 545 Climbing Washington Center
Thu 08:09:25 PM 38.3050 -77.9200 213° Southwest 477 549 36,000 254 Climbing Washington Center
Thu 08:10:23 PM 38.1947 -78.0067 212° Southwest 477 549 36,000  Level Washington Center
Thu 08:11:23 PM 38.0889 -78.0956 213° Southwest 470 541 36,000 -50 Level Washington Center
Thu 08:12:24 PM 37.9889 -78.1817 214° Southwest 462 532 35,900  Descending Washington Center
Thu 08:13:25 PM 37.8844 -78.2808 217° Southwest 457 526 36,000 50 Climbing Washington Center
Thu 08:14:23 PM 37.7844 -78.3744 217° Southwest 457 526 36,000  Level Washington Center
Thu 08:15:23 PM 37.6797 -78.4731 217° Southwest 469 540 36,000  Level Washington Center
Thu 08:16:24 PM 37.5667 -78.5786 217° Southwest 469 540 36,000  Level Washington Center
Thu 08:17:23 PM 37.4597 -78.6792 217° Southwest 469 540 36,000  Level Washington Center
Thu 08:18:23 PM 37.3553 -78.7742 216° Southwest 469 540 36,000  Level Washington Center
Thu 08:19:24 PM 37.2503 -78.8717 216° Southwest 469 540 36,000  Level Washington Center
Thu 08:20:24 PM 37.1517 -78.9639 217° Southwest 475 547 36,000  Level Washington Center
Thu 08:21:23 PM 37.0506 -79.0711 220° Southwest 475 547 36,000  Level Washington Center
Thu 08:22:23 PM 36.9472 -79.1783 220° Southwest 481 554 36,000  Level Washington Center
Thu 08:23:24 PM 36.8461 -79.2853 220° Southwest 486 559 36,000 -50 Level Washington Center
Thu 08:24:24 PM 36.7447 -79.3919 220° Southwest 486 559 35,900  Descending Washington Center
Thu 08:25:25 PM 36.6322 -79.5106 220° Southwest 486 559 36,000 45 Climbing Washington Center
Thu 08:26:38 PM 36.5139 -79.6528 224° Southwest 478 550 36,000  Level Atlanta Center
Thu 08:27:38 PM 36.4322 -79.7603 227° Southwest 478 550 36,000  Level Atlanta Center
Thu 08:28:38 PM 36.3381 -79.8789 225° Southwest 478 550 36,000  Level Atlanta Center
Thu 08:29:38 PM 36.2464 -79.9994 227° Southwest 478 550 36,000 -50 Level Atlanta Center
Thu 08:30:38 PM 36.1442 -80.1306 226° Southwest 478 550 35,900  Descending Atlanta Center
Thu 08:31:38 PM 36.0606 -80.2553 230° Southwest 478 550 36,000 50 Climbing Atlanta Center
Thu 08:32:38 PM 35.9767 -80.3822 231° Southwest 478 550 36,000  Level Atlanta Center
Thu 08:33:38 PM 35.9050 -80.4983 233° Southwest 478 550 36,000  Level Atlanta Center
Thu 08:34:38 PM 35.8122 -80.6150 226° Southwest 478 550 36,000  Level Atlanta Center
Thu 08:35:38 PM 35.6981 -80.7017 212° Southwest 483 556 36,000  Level Atlanta Center
Thu 08:36:38 PM 35.5856 -80.7931 213° Southwest 489 563 36,000  Level Atlanta Center
Thu 08:37:38 PM 35.4500 -80.8697 205° Southwest 489 563 36,000  Level Atlanta Center
Thu 08:38:38 PM 35.3222 -80.9333 202° Southwest 495 570 36,000  Level Atlanta Center
Thu 08:39:38 PM 35.2028 -80.9989 204° Southwest 490 564 36,000  Level Atlanta Center
Thu 08:40:38 PM 35.0794 -81.0667 204° Southwest 490 564 36,000  Level Atlanta Center
Thu 08:41:38 PM 34.9531 -81.1119 196° South 480 552 36,000  Level Atlanta Center
Thu 08:45:07 PM 34.5203 -81.2394 194° South 475 547 36,000  Level Jacksonville Center
Thu 08:46:07 PM 34.3936 -81.2822 196° South 475 547 36,000  Level Jacksonville Center
Thu 08:47:06 PM 34.2544 -81.3175 192° South 466 536 36,000  Level Jacksonville Center
Thu 08:48:07 PM 34.1339 -81.3572 195° South 466 536 36,000 -50 Level Jacksonville Center
Thu 08:49:07 PM 34.0006 -81.3922 192° South 472 543 35,900  Descending Jacksonville Center
Thu 08:50:06 PM 33.8739 -81.4292 194° South 472 543 36,000 50 Climbing Jacksonville Center
Thu 08:51:07 PM 33.7447 -81.4639 193° South 472 543 36,000  Level Jacksonville Center
Thu 08:52:06 PM 33.6181 -81.5033 195° South 472 543 36,000 -50 Level Jacksonville Center
Thu 08:53:07 PM 33.4911 -81.5403 194° South 472 543 35,900 -50 Descending Jacksonville Center
Thu 08:54:07 PM 33.3619 -81.5769 193° South 472 543 35,900 50 Level Jacksonville Center
Thu 08:55:06 PM 33.2372 -81.6211 196° South 472 543 36,000  Climbing Jacksonville Center
Thu 08:56:07 PM 33.1125 -81.6675 197° South 472 543 35,900  Descending Jacksonville Center
Thu 08:57:07 PM 32.9856 -81.7089 195° South 477 549 36,000 50 Climbing Jacksonville Center
Thu 08:58:07 PM 32.8608 -81.7525 196° South 472 543 36,000  Level Jacksonville Center
Thu 08:59:06 PM 32.7400 -81.7936 196° South 472 543 36,000  Level Jacksonville Center
Thu 09:00:07 PM 32.6297 -81.8369 198° South 462 532 36,000 -50 Level Jacksonville Center
Thu 09:01:07 PM 32.4944 -81.8828 196° South 462 532 35,900  Descending Jacksonville Center
Thu 09:02:07 PM 32.3672 -81.9086 190° South 457 526 36,000 50 Climbing Jacksonville Center
Thu 09:03:07 PM 32.2525 -81.9272 188° South 463 533 36,000  Level Jacksonville Center
Thu 09:04:07 PM 32.1128 -81.9483 187° South 463 533 36,000  Level Jacksonville Center
Thu 09:05:06 PM 32.0003 -81.9667 188° South 463 533 36,000 -50 Level Jacksonville Center
Thu 09:06:06 PM 31.8628 -81.9900 188° South 463 533 35,900 -50 Descending Jacksonville Center
Thu 09:07:07 PM 31.7397 -82.0106 188° South 463 533 35,900  Level Jacksonville Center
Thu 09:08:06 PM 31.6167 -82.0364 190° South 458 527 35,900  Level Jacksonville Center
Thu 09:09:06 PM 31.4914 -82.0544 187° South 457 526 35,900  Level Jacksonville Center
Thu 09:10:06 PM 31.3683 -82.0750 188° South 457 526 35,900  Level Jacksonville Center
Thu 09:11:07 PM 31.2411 -82.0956 188° South 457 526 35,900  Level Jacksonville Center
Thu 09:12:07 PM 31.1139 -82.1136 187° South 467 537 35,900  Level Jacksonville Center
Thu 09:13:06 PM 30.9889 -82.1364 189° South 467 537 35,900  Level Jacksonville Center
Thu 09:14:06 PM 30.8658 -82.1569 188° South 467 537 35,900  Level Jacksonville Center
Thu 09:15:07 PM 30.7425 -82.1747 187° South 462 532 35,900  Level Jacksonville Center
Thu 09:16:06 PM 30.6175 -82.1975 189° South 462 532 35,900  Level Jacksonville Center
Thu 09:17:06 PM 30.4964 -82.2103 185° South 462 532 35,900  Level Jacksonville Center
Thu 09:18:06 PM 30.3714 -82.2306 188° South 457 526 35,900 -250 Level Jacksonville Center
Thu 09:19:06 PM 30.2481 -82.2506 188° South 457 526 35,400 -750 Descending Jacksonville Center
Thu 09:20:06 PM 30.1208 -82.2706 188° South 457 526 34,400 -1,000 Descending Jacksonville Center
Thu 09:21:06 PM 29.9917 -82.2978 190° South 463 533 33,400 -1,000 Descending Jacksonville Center
Thu 09:22:06 PM 29.8664 -82.3178 188° South 469 540 32,400 -2,033 Descending Jacksonville Center
Thu 09:23:07 PM 29.7392 -82.3306 185° South 469 540 29,300 -2,579 Descending Jacksonville Center
Thu 09:24:07 PM 29.6097 -82.3528 188° South 464 534 27,200 -2,100 Descending Jacksonville Center
Thu 09:25:07 PM 29.4886 -82.3461 177° South 457 526 25,100 -2,067 Descending Jacksonville Center
Thu 09:26:06 PM 29.3675 -82.3303 174° South 446 513 23,100 -2,100 Descending Jacksonville Center
Thu 09:27:07 PM 29.2547 -82.3189 175° South 435 501 20,900 -2,050 Descending Jacksonville Center
Thu 09:28:06 PM 29.1442 -82.3078 175° South 416 479 19,000 -1,700 Descending Jacksonville Center
Thu 09:29:07 PM 29.0606 -82.2964 173° South 401 461 17,500 -1,939 Descending Jacksonville Center
Thu 09:30:50 PM 28.8667 -82.2667 172° South 363 418 13,700 -1,646 Descending Tampa TRACON
Thu 09:31:51 PM 28.7667 -82.2667 180° South 333 383 13,000 -783 Descending Tampa TRACON
Thu 09:32:45 PM 28.7000 -82.2500 168° South 302 348 12,200 -1,211 Descending Tampa TRACON
Thu 09:33:45 PM 28.6167 -82.2500 180° South 294 338 10,700 -1,429 Descending Tampa TRACON
Thu 09:34:51 PM 28.5333 -82.2500 180° South 290 334 9,200 -773 Descending Tampa TRACON
Thu 09:35:57 PM 28.4333 -82.2500 180° South 287 330 9,000 -286 Descending Tampa TRACON
Thu 09:36:57 PM 28.3500 -82.2667 190° South 287 330 8,600 -950 Descending Tampa TRACON
Thu 09:37:57 PM 28.3000 -82.3333 230° Southwest 290 334 7,100 -1,474 Descending Tampa TRACON
Thu 09:38:51 PM 28.2667 -82.4000 240° Southwest 286 329 5,800 -1,278 Descending Tampa TRACON
Thu 09:39:45 PM 28.2333 -82.4667 240° Southwest 270 311 4,800 -1,000 Descending Tampa TRACON
Thu 09:40:45 PM 28.1833 -82.5167 221° Southwest 246 283 3,900 -900 Descending Tampa TRACON

Login

Don't have an account? Register now (free) for customized features, flight alerts, and more!